createdAt,value
2022-08-20T00:02:09.598Z,100523.75
2022-08-20T00:04:36.742Z,100533.66
2022-08-20T00:07:06.341Z,100539.13
2022-08-20T00:09:36.436Z,100550.50
2022-08-20T00:12:05.484Z,100539.13
2022-08-20T00:14:33.993Z,100532.84
2022-08-20T00:17:01.707Z,100529.28
2022-08-20T00:19:29.098Z,100534.13
2022-08-20T00:21:58.046Z,100528.28
2022-08-20T00:24:25.797Z,100528.69
2022-08-20T00:26:52.930Z,100535.41
2022-08-20T00:29:20.426Z,100527.44
2022-08-20T00:31:48.762Z,100520.31
2022-08-20T00:34:15.374Z,100530.56
2022-08-20T00:36:42.001Z,100517.34
2022-08-20T00:39:08.542Z,100519.47
2022-08-20T00:41:35.103Z,100524.94
2022-08-20T00:44:18.514Z,100541.31
2022-08-20T00:46:46.597Z,100541.31
2022-08-20T00:49:18.023Z,100540.91
2022-08-20T00:51:53.313Z,100542.97
2022-08-20T00:54:25.087Z,100535.22
2022-08-20T00:57:05.979Z,100532.94
2022-08-20T00:59:36.240Z,100532.94
2022-08-20T01:02:05.523Z,100536.28
2022-08-20T01:04:34.192Z,100541.75
2022-08-20T01:07:01.419Z,100535.91
2022-08-20T01:09:50.555Z,100535.50
2022-08-20T01:12:16.243Z,100526.25
2022-08-20T01:14:45.363Z,100522.88
2022-08-20T01:17:18.211Z,100537.59
2022-08-20T01:19:53.005Z,100529.81
2022-08-20T01:22:50.788Z,100527.94
2022-08-20T01:25:29.337Z,100525.84
2022-08-20T01:27:56.289Z,100525.63
2022-08-20T01:30:27.830Z,100528.38
2022-08-20T01:32:55.183Z,100521.22
2022-08-20T01:35:22.802Z,100522.66
2022-08-20T01:37:49.434Z,100514.91
2022-08-20T01:40:29.458Z,100515.53
2022-08-20T01:42:59.106Z,100514.28
2022-08-20T01:45:30.248Z,100506.09
2022-08-20T01:47:57.669Z,100502.34
2022-08-20T01:50:27.664Z,100498.56
2022-08-20T01:53:24.590Z,100497.25
2022-08-20T01:55:51.155Z,100499.78
2022-08-20T01:58:18.506Z,100511.13
2022-08-20T02:00:45.340Z,100497.69
2022-08-20T02:03:11.937Z,100500.66
2022-08-20T02:05:38.632Z,100500.25
2022-08-20T02:08:05.821Z,100496.47
2022-08-20T02:10:32.820Z,100512.41
2022-08-20T02:13:00.990Z,100506.50
2022-08-20T02:15:34.905Z,100504.84
2022-08-20T02:18:11.315Z,100511.75
2022-08-20T02:20:39.268Z,100513.22
2022-08-20T02:23:06.484Z,100508.16
2022-08-20T02:25:36.359Z,100502.31
2022-08-20T02:28:06.276Z,100499.34
2022-08-20T02:30:37.112Z,100493.91
2022-08-20T02:33:06.760Z,100490.16
2022-08-20T02:35:34.412Z,100488.47
2022-08-20T02:38:01.675Z,100476.72
2022-08-20T02:40:30.622Z,100465.19
2022-08-20T02:43:01.595Z,100470.22
2022-08-20T02:45:30.466Z,100474.22
2022-08-20T02:47:58.911Z,100485.13
2022-08-20T02:50:26.547Z,100491.38
2022-08-20T02:52:53.268Z,100474.84
2022-08-20T02:55:27.824Z,100479.25
2022-08-20T02:57:58.737Z,100462.44
2022-08-20T03:00:26.850Z,100468.75
2022-08-20T03:02:53.547Z,100463.50
2022-08-20T03:05:20.235Z,100472.94
2022-08-20T03:07:49.423Z,100474.41
2022-08-20T03:10:16.961Z,100470.84
2022-08-20T03:12:43.528Z,100463.50
2022-08-20T03:15:17.486Z,100459.94
2022-08-20T03:17:45.226Z,100465.81
2022-08-20T03:20:13.366Z,100463.94
2022-08-20T03:22:40.119Z,100468.13
2022-08-20T03:25:07.635Z,100467.50
2022-08-20T03:27:36.446Z,100468.75
2022-08-20T03:30:06.100Z,100479.03
2022-08-20T03:32:32.723Z,100479.88
2022-08-20T03:34:59.306Z,100485.50
2022-08-20T03:37:29.979Z,100484.25
2022-08-20T03:39:56.723Z,100479.63
2022-08-20T03:42:23.377Z,100470.41
2022-08-20T03:44:59.093Z,100467.28
2022-08-20T03:47:26.924Z,100479.63
2022-08-20T03:50:01.426Z,100477.13
2022-08-20T03:52:29.329Z,100478.38
2022-08-20T03:54:56.566Z,100470.63
2022-08-20T03:57:23.682Z,100474.19
2022-08-20T03:59:54.644Z,100472.09
2022-08-20T04:02:25.434Z,100473.16
2022-08-20T04:04:52.059Z,100476.91
2022-08-20T04:07:25.895Z,100467.69
2022-08-20T04:09:56.422Z,100475.44
2022-08-20T04:12:25.195Z,100465.38
2022-08-20T04:14:54.170Z,100467.09
2022-08-20T04:17:21.051Z,100470.44
2022-08-20T04:19:49.167Z,100469.16
2022-08-20T04:22:15.789Z,100467.91
2022-08-20T04:24:43.575Z,100474.84
2022-08-20T04:27:10.957Z,100477.16
2022-08-20T04:29:37.654Z,100478.41
2022-08-20T04:32:06.223Z,100477.13
2022-08-20T04:34:32.916Z,100491.41
2022-08-20T04:36:59.533Z,100504.59
2022-08-20T04:39:26.841Z,100501.88
2022-08-20T04:41:53.440Z,100506.50
2022-08-20T04:44:21.768Z,100508.59
2022-08-20T04:46:49.002Z,100507.13
2022-08-20T04:49:15.783Z,100516.56
2022-08-20T04:51:42.336Z,100502.75
2022-08-20T04:54:09.170Z,100511.13
2022-08-20T04:56:39.713Z,100508.41
2022-08-20T04:59:07.433Z,100511.53
2022-08-20T05:01:34.685Z,100512.41
2022-08-20T05:04:01.877Z,100506.09
2022-08-20T05:06:32.909Z,100501.09
2022-08-20T05:09:00.368Z,100500.19
2022-08-20T05:11:36.109Z,100517.63
2022-08-20T05:14:11.391Z,100510.91
2022-08-20T05:16:40.518Z,100515.31
2022-08-20T05:19:09.138Z,100512.75
2022-08-20T05:21:35.943Z,100515.72
2022-08-20T05:24:02.918Z,100518.22
2022-08-20T05:26:29.536Z,100525.34
2022-08-20T05:28:58.819Z,100524.47
2022-08-20T05:31:31.375Z,100526.50
2022-08-20T05:34:12.029Z,100538.22
2022-08-20T05:36:50.156Z,100534.69
2022-08-20T05:39:19.474Z,100526.97
2022-08-20T05:41:46.753Z,100531.06
2022-08-20T05:44:14.675Z,100529.72
2022-08-20T05:46:43.475Z,100518.00
2022-08-20T05:49:13.604Z,100520.84
2022-08-20T05:51:40.285Z,100532.84
2022-08-20T05:54:07.494Z,100514.50
2022-08-20T05:56:34.984Z,100517.66
2022-08-20T05:59:04.328Z,100509.22
2022-08-20T06:01:36.081Z,100524.16
2022-08-20T06:04:21.639Z,100529.03
2022-08-20T06:06:48.565Z,100531.59
2022-08-20T06:09:31.031Z,100532.22
2022-08-20T06:11:59.568Z,100538.88
2022-08-20T06:14:26.618Z,100546.66
2022-08-20T06:16:57.276Z,100550.03
2022-08-20T06:19:26.407Z,100543.63
2022-08-20T06:21:53.814Z,100543.31
2022-08-20T06:24:21.340Z,100548.59
2022-08-20T06:26:48.148Z,100540.63
2022-08-20T06:29:16.155Z,100540.22
2022-08-20T06:31:42.686Z,100542.34
2022-08-20T06:34:09.302Z,100546.25
2022-08-20T06:36:35.826Z,100554.56
2022-08-20T06:39:02.420Z,100547.63
2022-08-20T06:41:36.125Z,100551.59
2022-08-20T06:44:03.661Z,100550.75
2022-08-20T06:46:30.244Z,100543.88
2022-08-20T06:48:56.864Z,100558.22
2022-08-20T06:51:23.399Z,100563.06
2022-08-20T06:53:50.007Z,100568.31
2022-08-20T06:56:16.656Z,100569.84
2022-08-20T06:58:43.961Z,100577.22
2022-08-20T07:01:12.228Z,100578.91
2022-08-20T07:03:41.971Z,100579.38
2022-08-20T07:06:21.003Z,100579.94
2022-08-20T07:08:47.531Z,100575.28
2022-08-20T07:11:14.123Z,100570.47
2022-08-20T07:13:41.496Z,100567.53
2022-08-20T07:16:08.121Z,100569.88
2022-08-20T07:18:34.783Z,100571.09
2022-08-20T07:21:01.339Z,100575.56
2022-08-20T07:23:28.366Z,100572.06
2022-08-20T07:25:55.796Z,100573.88
2022-08-20T07:28:25.364Z,100572.75
2022-08-20T07:31:13.844Z,100567.75
2022-08-20T07:33:44.301Z,100568.84
2022-08-20T07:36:12.857Z,100563.84
2022-08-20T07:38:39.497Z,100563.16
2022-08-20T07:41:09.970Z,100564.06
2022-08-20T07:43:36.582Z,100567.78
2022-08-20T07:46:08.856Z,100572.16
2022-08-20T07:48:40.308Z,100579.38
2022-08-20T07:51:08.640Z,100576.06
2022-08-20T07:53:37.741Z,100571.81
2022-08-20T07:56:07.113Z,100575.78
2022-08-20T07:58:36.586Z,100581.69
2022-08-20T08:01:05.642Z,100580.28
2022-08-20T08:03:39.462Z,100587.72
2022-08-20T08:06:28.478Z,100592.47
2022-08-20T08:09:08.618Z,100587.75
2022-08-20T08:11:38.434Z,100589.06
2022-08-20T08:14:08.188Z,100595.22
2022-08-20T08:16:36.827Z,100605.41
2022-08-20T08:19:06.584Z,100609.34
2022-08-20T08:21:33.228Z,100612.72
2022-08-20T08:23:59.949Z,100612.41
2022-08-20T08:26:28.808Z,100610.69
2022-08-20T08:28:55.686Z,100609.31
2022-08-20T08:31:25.797Z,100596.75
2022-08-20T08:33:52.417Z,100607.41
2022-08-20T08:36:19.065Z,100598.91
2022-08-20T08:38:46.451Z,100596.19
2022-08-20T08:41:17.881Z,100606.13
2022-08-20T08:43:47.690Z,100615.28
2022-08-20T08:46:18.689Z,100614.03
2022-08-20T08:48:48.474Z,100609.72
2022-08-20T08:51:22.167Z,100609.53
2022-08-20T08:53:53.509Z,100605.72
2022-08-20T08:56:22.215Z,100601.34
2022-08-20T08:58:49.744Z,100620.72
2022-08-20T09:01:55.361Z,100613.59
2022-08-20T09:04:09.507Z,100612.81
2022-08-20T09:06:36.696Z,100603.44
2022-08-20T09:09:06.637Z,100606.84
2022-08-20T09:11:46.279Z,100602.75
2022-08-20T09:14:13.550Z,100609.63
2022-08-20T09:16:45.769Z,100604.09
2022-08-20T09:19:19.518Z,100605.53
2022-08-20T09:21:46.122Z,100610.91
2022-08-20T09:24:12.881Z,100609.38
2022-08-20T09:26:39.537Z,100604.03
2022-08-20T09:29:06.184Z,100604.69
2022-08-20T09:31:32.870Z,100600.47
2022-08-20T09:33:59.771Z,100599.66
2022-08-20T09:36:31.945Z,100590.50
2022-08-20T09:38:59.917Z,100593.84
2022-08-20T09:41:26.467Z,100589.16
2022-08-20T09:43:53.295Z,100588.63
2022-08-20T09:46:20.025Z,100595.59
2022-08-20T09:48:54.108Z,100598.31
2022-08-20T09:51:20.816Z,100591.19
2022-08-20T09:53:47.406Z,100590.84
2022-08-20T09:56:14.163Z,100597.66
2022-08-20T09:58:53.300Z,100592.19
2022-08-20T10:01:21.743Z,100592.63
2022-08-20T10:03:50.051Z,100594.47
2022-08-20T10:06:20.874Z,100596.44
2022-08-20T10:08:49.313Z,100601.75
2022-08-20T10:11:16.605Z,100598.06
2022-08-20T10:13:46.490Z,100607.66
2022-08-20T10:16:14.405Z,100584.53
2022-08-20T10:18:40.949Z,100576.72
2022-08-20T10:21:11.787Z,100592.88
2022-08-20T10:23:38.974Z,100592.19
2022-08-20T10:26:08.469Z,100574.50
2022-08-20T10:28:35.745Z,100570.66
2022-08-20T10:31:02.374Z,100574.09
2022-08-20T10:33:28.979Z,100568.63
2022-08-20T10:35:59.915Z,100573.22
2022-08-20T10:38:26.893Z,100561.72
2022-08-20T10:40:53.862Z,100559.22
2022-08-20T10:43:20.512Z,100562.97
2022-08-20T10:45:47.077Z,100555.88
2022-08-20T10:48:16.144Z,100566.09
2022-08-20T10:50:46.183Z,100564.13
2022-08-20T10:53:13.907Z,100558.09
2022-08-20T10:55:40.643Z,100556.28
2022-08-20T10:58:08.276Z,100551.66
2022-08-20T11:00:38.359Z,100549.22
2022-08-20T11:03:04.943Z,100545.56
2022-08-20T11:05:31.528Z,100556.16
2022-08-20T11:07:59.669Z,100547.59
2022-08-20T11:10:28.927Z,100544.69
2022-08-20T11:12:55.599Z,100548.06
2022-08-20T11:15:22.362Z,100554.53
2022-08-20T11:17:49.053Z,100551.19
2022-08-20T11:20:19.845Z,100550.59
2022-08-20T11:22:47.236Z,100548.88
2022-08-20T11:25:14.148Z,100549.22
2022-08-20T11:27:44.360Z,100547.38
2022-08-20T11:30:18.505Z,100534.09
2022-08-20T11:32:45.306Z,100542.56
2022-08-20T11:35:40.537Z,100540.16
2022-08-20T11:37:59.507Z,100538.56
2022-08-20T11:40:27.163Z,100543.38
2022-08-20T11:43:13.568Z,100541.38
2022-08-20T11:45:42.796Z,100544.44
2022-08-20T11:48:09.431Z,100544.91
2022-08-20T11:50:36.142Z,100544.78
2022-08-20T11:53:02.759Z,100543.47
2022-08-20T11:55:30.056Z,100541.09
2022-08-20T11:57:59.822Z,100551.13
2022-08-20T12:00:31.868Z,100548.28
2022-08-20T12:03:01.385Z,100544.53
2022-08-20T12:05:29.980Z,100537.06
2022-08-20T12:07:57.994Z,100547.28
2022-08-20T12:10:26.746Z,100542.34
2022-08-20T12:12:53.961Z,100546.66
2022-08-20T12:15:20.777Z,100535.16
2022-08-20T12:17:47.429Z,100540.53
2022-08-20T12:20:15.542Z,100531.97
2022-08-20T12:22:42.641Z,100538.28
2022-08-20T12:25:09.555Z,100538.38
2022-08-20T12:27:37.576Z,100533.31
2022-08-20T12:30:12.205Z,100530.75
2022-08-20T12:32:39.385Z,100520.22
2022-08-20T12:35:09.055Z,100522.25
2022-08-20T12:37:36.148Z,100527.28
2022-08-20T12:40:06.756Z,100525.94
2022-08-20T12:42:33.735Z,100516.94
2022-08-20T12:45:01.080Z,100514.22
2022-08-20T12:47:30.435Z,100515.56
2022-08-20T12:50:01.045Z,100521.19
2022-08-20T12:52:29.421Z,100515.09
2022-08-20T12:54:57.791Z,100519.00
2022-08-20T12:57:32.945Z,100517.41
2022-08-20T13:00:04.843Z,100509.59
2022-08-20T13:02:31.527Z,100513.59
2022-08-20T13:05:02.489Z,100514.13
2022-08-20T13:07:32.197Z,100510.41
2022-08-20T13:09:59.365Z,100513.34
2022-08-20T13:12:26.147Z,100509.75
2022-08-20T13:14:52.912Z,100513.63
2022-08-20T13:17:20.369Z,100513.13
2022-08-20T13:20:00.230Z,100509.53
2022-08-20T13:22:26.856Z,100505.16
2022-08-20T13:24:53.600Z,100500.13
2022-08-20T13:27:24.653Z,100498.06
2022-08-20T13:29:58.604Z,100494.00
2022-08-20T13:32:26.170Z,100498.38
2022-08-20T13:34:52.877Z,100495.47
2022-08-20T13:37:25.484Z,100499.16
2022-08-20T13:39:53.538Z,100492.25
2022-08-20T13:42:20.394Z,100494.81
2022-08-20T13:44:47.452Z,100496.13
2022-08-20T13:47:19.168Z,100490.53
2022-08-20T13:49:46.876Z,100486.72
2022-08-20T13:52:17.000Z,100491.75
2022-08-20T13:54:43.770Z,100492.22
2022-08-20T13:57:16.882Z,100489.78
2022-08-20T13:59:46.595Z,100488.41
2022-08-20T14:02:14.203Z,100485.84
2022-08-20T14:04:40.820Z,100481.09
2022-08-20T14:07:14.572Z,100466.75
2022-08-20T14:09:43.471Z,100467.81
2022-08-20T14:12:11.710Z,100472.69
2022-08-20T14:14:38.290Z,100464.78
2022-08-20T14:17:17.934Z,100465.19
2022-08-20T14:19:46.519Z,100463.75
2022-08-20T14:22:13.418Z,100463.88
2022-08-20T14:24:40.287Z,100463.81
2022-08-20T14:27:08.530Z,100469.63
2022-08-20T14:29:37.680Z,100465.75
2022-08-20T14:32:05.619Z,100466.28
2022-08-20T14:34:33.486Z,100454.69
2022-08-20T14:37:10.115Z,100455.75
2022-08-20T14:39:36.782Z,100453.75
2022-08-20T14:42:03.385Z,100456.81
2022-08-20T14:44:30.008Z,100453.16
2022-08-20T14:46:56.723Z,100451.00
2022-08-20T14:49:23.373Z,100454.91
2022-08-20T14:51:49.950Z,100455.91
2022-08-20T14:54:16.650Z,100456.97
2022-08-20T14:56:43.269Z,100454.16
2022-08-20T14:59:09.849Z,100453.50
2022-08-20T15:01:36.479Z,100449.34
2022-08-20T15:04:03.309Z,100454.38
2022-08-20T15:06:31.231Z,100453.63
2022-08-20T15:08:57.927Z,100447.53
2022-08-20T15:11:24.596Z,100437.31
2022-08-20T15:13:51.227Z,100439.75
2022-08-20T15:16:17.770Z,100444.19
2022-08-20T15:18:44.328Z,100428.63
2022-08-20T15:21:11.215Z,100427.97
2022-08-20T15:23:37.811Z,100428.44
2022-08-20T15:26:05.531Z,100437.44
2022-08-20T15:28:32.133Z,100440.59
2022-08-20T15:30:58.715Z,100437.28
2022-08-20T15:33:25.258Z,100434.06
2022-08-20T15:35:51.807Z,100445.56
2022-08-20T15:38:18.418Z,100439.75
2022-08-20T15:40:45.060Z,100440.06
2022-08-20T15:43:11.628Z,100446.28
2022-08-20T15:45:38.288Z,100452.56
2022-08-20T15:48:09.592Z,100455.84
2022-08-20T15:50:48.138Z,100453.00
2022-08-20T15:53:24.815Z,100454.91
2022-08-20T15:56:03.171Z,100456.53
2022-08-20T15:58:46.755Z,100452.16
2022-08-20T16:01:56.512Z,100449.69
2022-08-20T16:04:45.078Z,100442.31
2022-08-20T16:07:19.902Z,100439.69
2022-08-20T16:10:01.187Z,100443.41
2022-08-20T16:12:35.935Z,100450.44
2022-08-20T16:15:09.473Z,100451.84
2022-08-20T16:17:43.541Z,100445.88
2022-08-20T16:20:18.683Z,100450.72
2022-08-20T16:22:47.140Z,100455.53
2022-08-20T16:25:17.391Z,100458.19
2022-08-20T16:28:09.791Z,100454.56
2022-08-20T16:30:42.673Z,100456.34
2022-08-20T16:33:27.971Z,100460.50
2022-08-20T16:36:07.661Z,100457.28
2022-08-20T16:38:34.501Z,100456.25
2022-08-20T16:41:28.431Z,100448.44
2022-08-20T16:44:03.987Z,100454.31
2022-08-20T16:46:37.984Z,100445.47
2022-08-20T16:49:13.729Z,100446.09
2022-08-20T16:51:42.525Z,100452.91
2022-08-20T16:54:10.678Z,100446.66
2022-08-20T16:56:47.813Z,100453.13
2022-08-20T16:59:27.142Z,100448.69
2022-08-20T17:02:10.531Z,100442.56
2022-08-20T17:04:58.436Z,100450.66
2022-08-20T17:07:33.461Z,100446.50
2022-08-20T17:10:27.278Z,100447.66
2022-08-20T17:13:19.365Z,100444.13
2022-08-20T17:15:57.894Z,100447.31
2022-08-20T17:18:28.330Z,100439.34
2022-08-20T17:21:04.690Z,100437.47
2022-08-20T17:23:54.595Z,100443.03
2022-08-20T17:26:55.171Z,100440.84
2022-08-20T17:29:28.053Z,100441.72
2022-08-20T17:32:00.443Z,100445.84
2022-08-20T17:34:32.711Z,100439.75
2022-08-20T17:37:19.258Z,100442.50
2022-08-20T17:39:51.481Z,100453.78
2022-08-20T17:42:25.640Z,100447.94
2022-08-20T17:45:24.603Z,100453.69
2022-08-20T17:47:52.772Z,100460.00
2022-08-20T17:50:20.414Z,100458.75
2022-08-20T17:52:53.438Z,100469.47
2022-08-20T17:55:20.783Z,100478.81
2022-08-20T17:57:51.858Z,100473.81
2022-08-20T18:00:24.373Z,100471.31
2022-08-20T18:02:59.313Z,100479.09
2022-08-20T18:05:29.527Z,100482.44
2022-08-20T18:08:25.750Z,100478.59
2022-08-20T18:11:03.758Z,100479.16
2022-08-20T18:13:48.281Z,100458.44
2022-08-20T18:16:25.545Z,100466.19
2022-08-20T18:18:59.500Z,100464.25
2022-08-20T18:21:40.643Z,100476.09
2022-08-20T18:24:24.536Z,100463.47
2022-08-20T18:26:58.286Z,100477.09
2022-08-20T18:29:39.041Z,100474.44
2022-08-20T18:32:24.996Z,100480.69
2022-08-20T18:34:53.033Z,100472.56
2022-08-20T18:37:27.696Z,100478.88
2022-08-20T18:40:16.572Z,100476.09
2022-08-20T18:42:43.526Z,100474.63
2022-08-20T18:45:10.321Z,100480.75
2022-08-20T18:47:36.865Z,100483.44
2022-08-20T18:50:16.468Z,100475.31
2022-08-20T18:53:14.913Z,100483.28
2022-08-20T18:55:47.432Z,100489.25
2022-08-20T18:58:38.087Z,100486.75
2022-08-20T19:01:11.520Z,100498.25
2022-08-20T19:03:44.633Z,100492.38
2022-08-20T19:06:35.747Z,100488.16
2022-08-20T19:09:37.750Z,100491.94
2022-08-20T19:12:16.289Z,100487.47
2022-08-20T19:14:52.607Z,100501.97
2022-08-20T19:17:55.407Z,100500.00
2022-08-20T19:20:27.015Z,100502.44
2022-08-20T19:22:59.741Z,100499.34
2022-08-20T19:25:38.346Z,100503.22
2022-08-20T19:28:21.386Z,100507.56
2022-08-20T19:30:48.601Z,100504.72
2022-08-20T19:33:25.352Z,100515.09
2022-08-20T19:35:52.303Z,100516.94
2022-08-20T19:38:18.863Z,100512.03
2022-08-20T19:40:46.040Z,100512.81
2022-08-20T19:43:17.614Z,100510.84
2022-08-20T19:45:50.299Z,100516.38
2022-08-20T19:48:44.339Z,100508.94
2022-08-20T19:51:20.386Z,100505.88
2022-08-20T19:53:49.372Z,100505.78
2022-08-20T19:56:18.947Z,100511.22
2022-08-20T19:58:45.957Z,100505.78
2022-08-20T20:01:18.621Z,100497.94
2022-08-20T20:04:04.546Z,100515.78
2022-08-20T20:06:36.210Z,100512.84
2022-08-20T20:09:15.125Z,100517.59
2022-08-20T20:11:51.638Z,100521.72
2022-08-20T20:14:22.910Z,100521.41
2022-08-20T20:16:51.119Z,100501.47
2022-08-20T20:19:27.994Z,100521.13
2022-08-20T20:22:26.328Z,100523.09
2022-08-20T20:25:22.585Z,100526.41
2022-08-20T20:27:52.140Z,100526.06
2022-08-20T20:30:38.230Z,100526.81
2022-08-20T20:33:15.517Z,100531.53
2022-08-20T20:35:43.716Z,100531.19
2022-08-20T20:38:24.207Z,100536.50
2022-08-20T20:41:02.381Z,100528.63
2022-08-20T20:46:12.662Z,100528.88
2022-08-20T20:48:55.293Z,100524.31
2022-08-20T20:51:31.076Z,100520.16
2022-08-20T20:54:01.833Z,100524.94
2022-08-20T20:56:33.727Z,100535.31
2022-08-20T20:59:06.258Z,100534.00
2022-08-20T21:01:49.203Z,100528.63
2022-08-20T21:04:22.225Z,100531.75
2022-08-20T21:06:49.752Z,100540.94
2022-08-20T21:09:16.824Z,100535.91
2022-08-20T21:11:43.585Z,100543.91
2022-08-20T21:14:10.250Z,100534.59
2022-08-20T21:16:36.965Z,100537.34
2022-08-20T21:19:07.873Z,100551.09
2022-08-20T21:21:34.593Z,100547.25
2022-08-20T21:24:01.248Z,100545.00
2022-08-20T21:26:28.049Z,100545.69
2022-08-20T21:28:55.082Z,100547.25
2022-08-20T21:31:23.474Z,100551.66
2022-08-20T21:33:49.943Z,100543.78
2022-08-20T21:36:16.509Z,100547.94
2022-08-20T21:38:43.063Z,100555.72
2022-08-20T21:41:09.682Z,100551.44
2022-08-20T21:43:36.281Z,100567.31
2022-08-20T21:46:04.093Z,100555.38
2022-08-20T21:48:32.316Z,100546.69
2022-08-20T21:50:59.001Z,100564.56
2022-08-20T21:53:25.575Z,100552.63
2022-08-20T21:55:52.138Z,100559.31
2022-08-20T21:58:20.293Z,100558.38
2022-08-20T22:01:00.141Z,100572.44
2022-08-20T22:03:30.458Z,100570.66
2022-08-20T22:05:58.475Z,100570.97
2022-08-20T22:08:28.797Z,100576.66
2022-08-20T22:10:57.210Z,100576.66
2022-08-20T22:13:24.206Z,100571.91
2022-08-20T22:15:51.195Z,100573.44
2022-08-20T22:18:18.475Z,100580.59
2022-08-20T22:20:45.419Z,100574.66
2022-08-20T22:23:12.736Z,100582.03
2022-08-20T22:25:40.377Z,100566.50
2022-08-20T22:28:07.801Z,100585.97
2022-08-20T22:30:42.386Z,100592.53
2022-08-20T22:33:13.150Z,100590.19
2022-08-20T22:35:49.325Z,100582.44
2022-08-20T22:38:16.827Z,100588.69
2022-08-20T22:40:44.490Z,100597.53
2022-08-20T22:43:11.911Z,100584.50
2022-08-20T22:45:40.418Z,100595.38
2022-08-20T22:48:08.132Z,100592.69
2022-08-20T22:50:36.864Z,100561.97
2022-08-20T22:53:04.375Z,100592.59
2022-08-20T22:55:30.921Z,100590.09
2022-08-20T22:57:57.658Z,100597.63
2022-08-20T23:00:24.391Z,100591.31
2022-08-20T23:02:53.383Z,100591.41
2022-08-20T23:05:22.973Z,100590.38
2022-08-20T23:07:53.809Z,100590.38
2022-08-20T23:10:21.225Z,100580.94
2022-08-20T23:12:47.825Z,100581.72
2022-08-20T23:15:14.398Z,100577.16
2022-08-20T23:17:41.253Z,100580.84
2022-08-20T23:20:10.721Z,100576.44
2022-08-20T23:22:37.449Z,100572.38
2022-08-20T23:25:05.905Z,100571.22
2022-08-20T23:27:35.283Z,100573.47
2022-08-20T23:30:01.833Z,100581.00
2022-08-20T23:32:28.382Z,100571.84
2022-08-20T23:34:54.897Z,100583.44
2022-08-20T23:37:21.487Z,100571.75
2022-08-20T23:39:49.801Z,100576.66
2022-08-20T23:42:16.869Z,100577.06
2022-08-20T23:44:43.572Z,100584.84
2022-08-20T23:47:11.966Z,100577.56
2022-08-20T23:49:38.360Z,100579.34
2022-08-20T23:52:05.018Z,100572.91
2022-08-20T23:54:32.845Z,100571.63
2022-08-20T23:57:01.107Z,100572.09
2022-08-20T23:59:27.683Z,100575.56
